Time;durP1;ratioP1;P1;durP2;ratioP2;P2;SDS_P1;SDS_P2;PMS_P1;PMS_P2;Temp;Humidity;BMP_temperature;BMP_pressure;BME280_temperature;BME280_humidity;BME280_pressure;Samples;Min_cycle;Max_cycle;Signal;HPM_P1;HPM_P2
2022/03/12 00:01:31;;;;;;;3.72;2.40;;;;;;;;;;4991270;28;20065;-81
2022/03/12 00:03:57;;;;;;;4.07;2.45;;;;;;;;;;4974820;28;20519;-81
2022/03/12 00:06:23;;;;;;;4.57;2.97;;;;;;;;;;4975304;28;20053;-82
2022/03/12 00:08:51;;;;;;;4.30;2.70;;;;;;;;;;4974242;28;20497;-81
2022/03/12 00:11:18;;;;;;;4.97;2.58;;;;;;;;;;5001079;28;20034;-82
2022/03/12 00:13:44;;;;;;;4.95;2.75;;;;;;;;;;4994810;28;20053;-81
2022/03/12 00:16:15;;;;;;;4.10;2.90;;;;;;;;;;4994653;28;20408;-81
2022/03/12 00:18:42;;;;;;;3.28;2.40;;;;;;;;;;4994632;28;20088;-81
2022/03/12 00:21:10;;;;;;;4.35;2.65;;;;;;;;;;4994746;28;20042;-81
2022/03/12 00:23:36;;;;;;;4.18;3.05;;;;;;;;;;4994888;28;20048;-81
2022/03/12 00:26:01;;;;;;;3.30;2.50;;;;;;;;;;4994326;28;20041;-82
2022/03/12 00:28:27;;;;;;;4.03;2.53;;;;;;;;;;4986620;28;20037;-81
2022/03/12 00:30:52;;;;;;;4.70;2.83;;;;;;;;;;5010709;28;20038;-81
2022/03/12 00:33:18;;;;;;;3.55;2.50;;;;;;;;;;4993608;28;20042;-81
2022/03/12 00:35:46;;;;;;;3.63;2.60;;;;;;;;;;5010300;28;20042;-82
2022/03/12 00:38:11;;;;;;;3.50;2.53;;;;;;;;;;4993936;28;20042;-82
2022/03/12 00:40:37;;;;;;;3.85;2.85;;;;;;;;;;4994234;28;20493;-82
2022/03/12 00:43:03;;;;;;;4.78;2.47;;;;;;;;;;4994346;28;20081;-82
2022/03/12 00:45:29;;;;;;;3.53;2.55;;;;;;;;;;4974604;28;20528;-81
2022/03/12 00:47:55;;;;;;;6.72;2.88;;;;;;;;;;4990953;28;20053;-81
2022/03/12 00:50:20;;;;;;;3.92;2.65;;;;;;;;;;4991013;28;20027;-82
2022/03/12 00:52:46;;;;;;;4.25;2.85;;;;;;;;;;4974472;28;20050;-82
2022/03/12 00:55:11;;;;;;;3.55;2.33;;;;;;;;;;4991064;28;20409;-82
2022/03/12 00:57:37;;;;;;;3.78;2.53;;;;;;;;;;4994134;28;20042;-82
2022/03/12 01:00:03;;;;;;;4.57;2.85;;;;;;;;;;4976795;28;20038;-82
2022/03/12 01:02:28;;;;;;;5.72;2.45;;;;;;;;;;5010128;28;20038;-81
2022/03/12 01:04:54;;;;;;;2.92;2.35;;;;;;;;;;4977796;28;20455;-82
2022/03/12 01:07:19;;;;;;;3.33;2.60;;;;;;;;;;4993781;28;20112;-82
2022/03/12 01:09:44;;;;;;;4.00;2.53;;;;;;;;;;4993560;28;20571;-82
2022/03/12 01:12:10;;;;;;;4.45;2.97;;;;;;;;;;4994401;28;20049;-81
2022/03/12 01:14:38;;;;;;;3.97;2.42;;;;;;;;;;4976721;28;20046;-81
2022/03/12 01:17:05;;;;;;;3.90;2.63;;;;;;;;;;4990585;28;20505;-82
2022/03/12 01:19:31;;;;;;;3.20;2.72;;;;;;;;;;5006644;28;20026;-82
2022/03/12 01:21:56;;;;;;;3.25;2.45;;;;;;;;;;5012683;28;20042;-81
2022/03/12 01:24:22;;;;;;;3.00;2.45;;;;;;;;;;4997222;28;20112;-82
2022/03/12 01:26:47;;;;;;;4.63;3.00;;;;;;;;;;4997045;28;20451;-82
2022/03/12 01:29:13;;;;;;;2.67;1.95;;;;;;;;;;5013792;28;20484;-82
2022/03/12 01:31:38;;;;;;;3.60;2.63;;;;;;;;;;5030324;28;20519;-82
2022/03/12 01:34:04;;;;;;;3.10;2.45;;;;;;;;;;4993925;28;20424;-82
2022/03/12 01:36:30;;;;;;;3.15;2.20;;;;;;;;;;4997268;28;20123;-82
2022/03/12 01:38:56;;;;;;;3.40;2.22;;;;;;;;;;4981198;28;20034;-82
2022/03/12 01:41:32;;;;;;;3.22;2.30;;;;;;;;;;4997599;28;20407;-82
2022/03/12 01:43:59;;;;;;;3.33;2.67;;;;;;;;;;4993826;28;20046;-82
2022/03/12 01:46:32;;;;;;;2.88;1.92;;;;;;;;;;4997548;28;20042;-82
2022/03/12 01:48:59;;;;;;;4.30;2.40;;;;;;;;;;4997268;28;20061;-82
2022/03/12 01:51:26;;;;;;;4.03;2.85;;;;;;;;;;4997247;28;20108;-81
2022/03/12 01:53:51;;;;;;;2.80;2.17;;;;;;;;;;4996739;28;20080;-82
2022/03/12 01:56:17;;;;;;;3.00;1.90;;;;;;;;;;4997047;28;20049;-82
2022/03/12 01:58:45;;;;;;;2.97;2.03;;;;;;;;;;4977437;28;20405;-82
2022/03/12 02:01:11;;;;;;;3.05;1.92;;;;;;;;;;4977611;28;20070;-82
2022/03/12 02:03:36;;;;;;;4.38;2.20;;;;;;;;;;4996362;28;20041;-81
2022/03/12 02:06:01;;;;;;;4.18;2.30;;;;;;;;;;4996483;28;20500;-82
2022/03/12 02:08:27;;;;;;;2.97;2.13;;;;;;;;;;5012858;28;20030;-81
2022/03/12 02:10:57;;;;;;;4.20;2.35;;;;;;;;;;4993522;28;20053;-81
2022/03/12 02:13:24;;;;;;;2.85;1.95;;;;;;;;;;4977405;28;20465;-81
2022/03/12 02:15:49;;;;;;;2.60;1.77;;;;;;;;;;4976873;28;20038;-82
2022/03/12 02:18:15;;;;;;;3.38;2.13;;;;;;;;;;4987078;28;20088;-82
2022/03/12 02:20:40;;;;;;;2.60;1.77;;;;;;;;;;5012669;28;20129;-82
2022/03/12 02:23:07;;;;;;;3.33;2.05;;;;;;;;;;4978140;28;20034;-82
2022/03/12 02:25:33;;;;;;;3.05;2.30;;;;;;;;;;4996413;28;20037;-82
2022/03/12 02:27:59;;;;;;;3.33;1.95;;;;;;;;;;4996299;28;20038;-81
2022/03/12 02:30:39;;;;;;;3.25;1.88;;;;;;;;;;4996302;28;20121;-82
2022/03/12 02:33:04;;;;;;;3.22;1.85;;;;;;;;;;4998633;28;20040;-82
2022/03/12 02:35:34;;;;;;;2.92;2.03;;;;;;;;;;4995838;28;20033;-82
2022/03/12 02:38:00;;;;;;;2.30;1.60;;;;;;;;;;4996913;28;20053;-82
2022/03/12 02:40:26;;;;;;;3.63;2.03;;;;;;;;;;4980071;28;20100;-82
2022/03/12 02:42:53;;;;;;;3.55;2.03;;;;;;;;;;4995849;28;20043;-82
2022/03/12 02:45:20;;;;;;;3.45;1.92;;;;;;;;;;4996279;28;20393;-82
2022/03/12 02:47:47;;;;;;;2.13;1.65;;;;;;;;;;5012102;28;20115;-81
2022/03/12 02:50:14;;;;;;;5.53;1.80;;;;;;;;;;4980002;28;20032;-82
2022/03/12 02:52:41;;;;;;;3.17;1.70;;;;;;;;;;4995116;28;20065;-81
2022/03/12 02:55:09;;;;;;;2.80;1.85;;;;;;;;;;4995864;28;20128;-82
2022/03/12 02:57:34;;;;;;;2.95;1.80;;;;;;;;;;5011789;28;20026;-81
2022/03/12 03:00:04;;;;;;;2.45;1.73;;;;;;;;;;5008775;28;20041;-82
2022/03/12 03:02:40;;;;;;;2.47;1.65;;;;;;;;;;4993151;28;20030;-81
2022/03/12 03:07:58;;;;;;;2.45;1.80;;;;;;;;;;5007572;28;20030;-82
2022/03/12 03:10:50;;;;;;;3.33;1.77;;;;;;;;;;5004386;28;20050;-82
2022/03/12 03:13:16;;;;;;;2.60;1.42;;;;;;;;;;5005390;28;20092;-82
2022/03/12 03:16:01;;;;;;;2.60;1.60;;;;;;;;;;5011462;28;20042;-82
2022/03/12 03:18:31;;;;;;;2.72;1.83;;;;;;;;;;5011477;28;20044;-82
2022/03/12 03:20:57;;;;;;;2.55;1.83;;;;;;;;;;4995655;28;20048;-81
2022/03/12 03:23:24;;;;;;;2.72;1.70;;;;;;;;;;4979234;28;20026;-82
2022/03/12 03:25:49;;;;;;;2.80;1.50;;;;;;;;;;4995440;28;20041;-82
2022/03/12 03:28:15;;;;;;;2.42;1.33;;;;;;;;;;4979356;28;20033;-81
2022/03/12 03:30:41;;;;;;;2.00;1.35;;;;;;;;;;4995051;28;20041;-81
2022/03/12 03:33:07;;;;;;;2.75;1.65;;;;;;;;;;4992962;28;20045;-82
2022/03/12 03:35:33;;;;;;;2.60;1.85;;;;;;;;;;4995161;28;20033;-82
2022/03/12 03:37:59;;;;;;;2.45;1.33;;;;;;;;;;5011327;28;20034;-82
2022/03/12 03:40:25;;;;;;;2.40;1.27;;;;;;;;;;4994672;28;20385;-82
2022/03/12 03:42:50;;;;;;;2.60;2.17;;;;;;;;;;4995292;28;20131;-81
2022/03/12 03:45:27;;;;;;;3.42;1.83;;;;;;;;;;4994860;28;20124;-82
2022/03/12 03:47:54;;;;;;;2.40;1.67;;;;;;;;;;5007848;28;20034;-82
2022/03/12 03:50:20;;;;;;;2.30;1.35;;;;;;;;;;5007836;28;20096;-82
2022/03/12 03:52:46;;;;;;;3.45;2.08;;;;;;;;;;4991333;28;20030;-81
2022/03/12 03:55:11;;;;;;;2.67;1.80;;;;;;;;;;4991151;28;20030;-82
2022/03/12 03:57:37;;;;;;;2.33;1.50;;;;;;;;;;4994693;28;20440;-81
2022/03/12 04:00:03;;;;;;;2.50;1.65;;;;;;;;;;4991431;28;20034;-82
2022/03/12 04:02:29;;;;;;;2.67;1.70;;;;;;;;;;4976889;28;20040;-82
2022/03/12 04:04:54;;;;;;;2.20;1.30;;;;;;;;;;4978405;28;20038;-82
2022/03/12 04:07:20;;;;;;;2.42;1.40;;;;;;;;;;4994415;28;20042;-82
2022/03/12 04:09:45;;;;;;;2.42;1.40;;;;;;;;;;5010075;28;20073;-82
2022/03/12 04:12:10;;;;;;;2.30;1.42;;;;;;;;;;4994483;28;20512;-82
2022/03/12 04:14:36;;;;;;;1.85;1.25;;;;;;;;;;4994306;28;20034;-82
2022/03/12 04:17:02;;;;;;;1.88;1.15;;;;;;;;;;4994714;28;20369;-82
2022/03/12 04:19:29;;;;;;;2.30;1.33;;;;;;;;;;4993600;28;20149;-81
2022/03/12 04:21:56;;;;;;;2.25;1.50;;;;;;;;;;4975901;28;20038;-82
2022/03/12 04:24:23;;;;;;;2.83;1.60;;;;;;;;;;5010456;28;20038;-81
2022/03/12 04:26:50;;;;;;;2.30;1.70;;;;;;;;;;4994864;28;20037;-82
2022/03/12 04:29:16;;;;;;;2.15;1.55;;;;;;;;;;4994489;28;20049;-82
2022/03/12 04:31:42;;;;;;;1.88;1.25;;;;;;;;;;4976596;28;20038;-81
2022/03/12 04:34:07;;;;;;;1.80;1.05;;;;;;;;;;4992848;28;20073;-82
2022/03/12 04:36:34;;;;;;;2.53;1.50;;;;;;;;;;4988530;28;20049;-82
2022/03/12 04:39:00;;;;;;;2.50;1.45;;;;;;;;;;5005984;28;20026;-82
2022/03/12 04:41:29;;;;;;;2.83;1.65;;;;;;;;;;5006726;28;20030;-82
2022/03/12 04:43:55;;;;;;;2.53;1.40;;;;;;;;;;5006226;28;20053;-82
2022/03/12 04:46:20;;;;;;;1.83;1.13;;;;;;;;;;5007433;28;20030;-82
2022/03/12 04:48:45;;;;;;;2.35;1.48;;;;;;;;;;4990733;28;20038;-81
2022/03/12 04:51:11;;;;;;;2.60;1.55;;;;;;;;;;5003181;28;20029;-82
2022/03/12 04:53:38;;;;;;;1.80;1.17;;;;;;;;;;4992386;28;20057;-83
2022/03/12 04:56:04;;;;;;;1.85;1.30;;;;;;;;;;4995195;28;20107;-82
2022/03/12 04:58:29;;;;;;;2.22;1.58;;;;;;;;;;4996872;28;20030;-82
2022/03/12 05:00:55;;;;;;;2.50;1.25;;;;;;;;;;5013523;28;20108;-81
2022/03/12 05:03:22;;;;;;;1.95;1.10;;;;;;;;;;5013488;28;20108;-82
2022/03/12 05:05:51;;;;;;;1.83;1.17;;;;;;;;;;5014119;28;20065;-82
2022/03/12 05:08:18;;;;;;;2.10;1.40;;;;;;;;;;4983808;28;20561;-81
2022/03/12 05:10:49;;;;;;;2.90;1.42;;;;;;;;;;4994624;28;20038;-82
2022/03/12 05:13:22;;;;;;;2.50;1.10;;;;;;;;;;4978912;28;20050;-82
2022/03/12 05:15:49;;;;;;;2.42;1.42;;;;;;;;;;4979201;28;20473;-82
2022/03/12 05:18:15;;;;;;;1.52;1.10;;;;;;;;;;4993594;28;20042;-82
2022/03/12 05:20:46;;;;;;;2.13;1.10;;;;;;;;;;4998526;28;20037;-82
2022/03/12 05:23:11;;;;;;;3.88;1.17;;;;;;;;;;4994981;28;20117;-82
2022/03/12 05:25:41;;;;;;;1.85;1.20;;;;;;;;;;5010719;28;20452;-82
2022/03/12 05:28:06;;;;;;;2.00;1.15;;;;;;;;;;5010783;28;20061;-81
2022/03/12 05:30:32;;;;;;;2.72;1.70;;;;;;;;;;4977862;28;20037;-81
2022/03/12 05:32:57;;;;;;;2.30;1.60;;;;;;;;;;4985035;28;20435;-82
2022/03/12 05:35:23;;;;;;;2.47;1.20;;;;;;;;;;4996980;28;20504;-82
2022/03/12 05:37:50;;;;;;;2.20;1.50;;;;;;;;;;4996875;28;20132;-82
2022/03/12 05:40:19;;;;;;;2.75;1.63;;;;;;;;;;5013755;28;20037;-82
2022/03/12 05:42:47;;;;;;;1.77;1.27;;;;;;;;;;5014142;28;20049;-82
2022/03/12 05:45:14;;;;;;;2.72;1.10;;;;;;;;;;4997661;28;20034;-82
2022/03/12 05:47:41;;;;;;;2.05;1.08;;;;;;;;;;4997140;28;20038;-82
2022/03/12 05:50:10;;;;;;;1.85;1.20;;;;;;;;;;5009467;28;20117;-81
2022/03/12 05:52:40;;;;;;;2.42;1.48;;;;;;;;;;5012508;28;20552;-79
2022/03/12 05:55:08;;;;;;;2.45;1.58;;;;;;;;;;4995594;28;20042;-79
2022/03/12 05:57:37;;;;;;;2.97;2.00;;;;;;;;;;5013652;28;20030;-79
2022/03/12 06:00:04;;;;;;;1.70;1.15;;;;;;;;;;5012945;28;20132;-79
2022/03/12 06:02:29;;;;;;;2.00;1.10;;;;;;;;;;4980876;28;20037;-79
2022/03/12 06:05:00;;;;;;;1.95;1.48;;;;;;;;;;5012637;28;20528;-78
2022/03/12 06:07:27;;;;;;;2.17;1.33;;;;;;;;;;4992417;28;20070;-79
2022/03/12 06:09:54;;;;;;;2.35;1.20;;;;;;;;;;4977624;28;20097;-79
2022/03/12 06:12:20;;;;;;;2.38;1.45;;;;;;;;;;4996731;28;20038;-79
2022/03/12 06:14:51;;;;;;;2.20;1.40;;;;;;;;;;4997066;28;20507;-79
2022/03/12 06:17:16;;;;;;;1.98;1.20;;;;;;;;;;4996821;28;20060;-79
2022/03/12 06:19:41;;;;;;;2.83;1.40;;;;;;;;;;4996157;28;20038;-79
2022/03/12 06:22:07;;;;;;;2.35;1.13;;;;;;;;;;4995630;28;20033;-79
2022/03/12 06:24:32;;;;;;;2.80;1.65;;;;;;;;;;4995165;28;20037;-79
2022/03/12 06:26:58;;;;;;;3.20;1.30;;;;;;;;;;5012897;28;20042;-79
2022/03/12 06:29:23;;;;;;;3.50;1.25;;;;;;;;;;5012942;28;20042;-79
2022/03/12 06:31:49;;;;;;;5.80;1.33;;;;;;;;;;4996303;28;20044;-79
2022/03/12 06:34:14;;;;;;;2.20;1.10;;;;;;;;;;4996018;28;20109;-79
2022/03/12 06:36:40;;;;;;;3.00;1.40;;;;;;;;;;4996148;28;20060;-79
2022/03/12 06:39:06;;;;;;;2.75;1.67;;;;;;;;;;5012238;28;20635;-79
2022/03/12 06:41:43;;;;;;;3.28;1.60;;;;;;;;;;4996131;28;20044;-79
2022/03/12 06:44:08;;;;;;;3.55;1.38;;;;;;;;;;5013116;28;20048;-78
2022/03/12 06:46:35;;;;;;;4.38;1.52;;;;;;;;;;4993326;28;20037;-78
2022/03/12 06:49:02;;;;;;;7.00;1.50;;;;;;;;;;4991914;28;20065;-78
2022/03/12 06:51:28;;;;;;;3.17;1.90;;;;;;;;;;4992007;28;20054;-78
2022/03/12 06:53:53;;;;;;;4.20;1.83;;;;;;;;;;4993979;28;20121;-78
2022/03/12 06:56:19;;;;;;;3.72;1.92;;;;;;;;;;5028856;28;20046;-78
2022/03/12 06:58:45;;;;;;;5.57;2.35;;;;;;;;;;4992536;28;20038;-79
2022/03/12 07:01:10;;;;;;;3.08;1.38;;;;;;;;;;4992526;28;20113;-78
2022/03/12 07:03:35;;;;;;;3.92;1.50;;;;;;;;;;4959703;28;20034;-78
2022/03/12 07:06:01;;;;;;;4.38;1.38;;;;;;;;;;4992452;28;20034;-79
2022/03/12 07:08:26;;;;;;;3.08;1.30;;;;;;;;;;4992119;28;20042;-78
2022/03/12 07:10:53;;;;;;;7.63;1.88;;;;;;;;;;4998662;28;20397;-79
2022/03/12 07:13:19;;;;;;;2.58;1.85;;;;;;;;;;5011889;28;20064;-78
2022/03/12 07:15:44;;;;;;;6.57;3.72;;;;;;;;;;4995326;28;20042;-79
2022/03/12 07:18:09;;;;;;;6.90;3.45;;;;;;;;;;4992599;28;20045;-78
2022/03/12 07:20:35;;;;;;;8.95;6.18;;;;;;;;;;5011619;28;20112;-79
2022/03/12 07:23:00;;;;;;;10.48;6.78;;;;;;;;;;5010904;28;20034;-78
2022/03/12 07:25:27;;;;;;;9.25;6.30;;;;;;;;;;4991327;28;20512;-79
2022/03/12 07:27:53;;;;;;;8.68;5.80;;;;;;;;;;5011648;28;20416;-79
2022/03/12 07:30:19;;;;;;;9.15;6.07;;;;;;;;;;5011819;28;20038;-79
2022/03/12 07:32:44;;;;;;;9.75;5.75;;;;;;;;;;4995019;28;20443;-79
2022/03/12 07:35:11;;;;;;;11.43;5.97;;;;;;;;;;4995326;28;20113;-78
2022/03/12 07:37:36;;;;;;;10.43;6.05;;;;;;;;;;4994556;28;20045;-77
2022/03/12 07:40:02;;;;;;;11.43;5.38;;;;;;;;;;5011178;28;20073;-78
2022/03/12 07:42:28;;;;;;;13.55;4.97;;;;;;;;;;5011048;28;20113;-78
2022/03/12 07:44:53;;;;;;;11.73;4.40;;;;;;;;;;5011222;28;20563;-79
2022/03/12 07:47:18;;;;;;;10.30;4.25;;;;;;;;;;4970906;28;20041;-78
2022/03/12 07:49:44;;;;;;;11.02;4.53;;;;;;;;;;4991452;28;20417;-80
2022/03/12 07:52:10;;;;;;;16.60;5.97;;;;;;;;;;5009029;28;20073;-80
2022/03/12 07:54:37;;;;;;;9.68;3.92;;;;;;;;;;5010795;28;20038;-78
2022/03/12 07:57:03;;;;;;;6.60;3.70;;;;;;;;;;4977730;28;20407;-78
2022/03/12 07:59:29;;;;;;;9.10;4.32;;;;;;;;;;4998205;28;20037;-77
2022/03/12 08:01:55;;;;;;;11.02;3.42;;;;;;;;;;4974777;28;20042;-78
2022/03/12 08:04:20;;;;;;;7.20;3.40;;;;;;;;;;4990748;28;20061;-78
2022/03/12 08:06:46;;;;;;;8.02;3.50;;;;;;;;;;5006380;28;20054;-79
2022/03/12 08:09:11;;;;;;;6.13;2.85;;;;;;;;;;4991884;28;20408;-79
2022/03/12 08:11:37;;;;;;;5.90;3.40;;;;;;;;;;5027302;28;20044;-79
2022/03/12 08:14:08;;;;;;;9.10;3.42;;;;;;;;;;4994813;28;20045;-79
2022/03/12 08:16:34;;;;;;;6.90;3.00;;;;;;;;;;4991563;28;20181;-79
2022/03/12 08:19:01;;;;;;;8.77;2.90;;;;;;;;;;4958723;28;20058;-80
2022/03/12 08:21:27;;;;;;;6.47;2.65;;;;;;;;;;4989887;28;20468;-79
2022/03/12 08:23:52;;;;;;;8.18;2.80;;;;;;;;;;4993243;28;20037;-79
2022/03/12 08:26:18;;;;;;;14.63;2.90;;;;;;;;;;5010530;28;20038;-80
2022/03/12 08:28:44;;;;;;;5.03;2.88;;;;;;;;;;4994399;28;20058;-80
2022/03/12 08:31:09;;;;;;;6.38;2.65;;;;;;;;;;4993865;28;20099;-79
2022/03/12 08:33:36;;;;;;;4.72;2.33;;;;;;;;;;4992824;28;20038;-79
2022/03/12 08:36:02;;;;;;;4.28;2.22;;;;;;;;;;4994159;28;20042;-80
2022/03/12 08:38:28;;;;;;;8.13;2.50;;;;;;;;;;4994371;28;20038;-80
2022/03/12 08:40:53;;;;;;;4.40;2.25;;;;;;;;;;4994220;28;20050;-79
2022/03/12 08:43:19;;;;;;;3.65;1.80;;;;;;;;;;4994524;28;20044;-79
2022/03/12 08:45:45;;;;;;;4.95;2.67;;;;;;;;;;4978086;28;20038;-78
2022/03/12 08:48:10;;;;;;;3.55;2.45;;;;;;;;;;4978172;28;20030;-77
2022/03/12 08:50:35;;;;;;;6.10;2.53;;;;;;;;;;5005985;28;20042;-77
2022/03/12 08:53:01;;;;;;;3.50;1.77;;;;;;;;;;5009979;28;20046;-77
2022/03/12 08:55:26;;;;;;;5.05;2.25;;;;;;;;;;4993307;28;20073;-77
2022/03/12 08:57:52;;;;;;;4.68;2.30;;;;;;;;;;5010246;28;20412;-77
2022/03/12 09:00:18;;;;;;;3.42;1.90;;;;;;;;;;4990417;28;20035;-77
2022/03/12 09:02:44;;;;;;;4.13;2.35;;;;;;;;;;5007238;28;20509;-77
2022/03/12 09:05:12;;;;;;;5.43;2.42;;;;;;;;;;4990700;28;20045;-78
2022/03/12 09:07:37;;;;;;;4.78;1.92;;;;;;;;;;4990570;28;20043;-77
2022/03/12 09:10:05;;;;;;;3.42;1.83;;;;;;;;;;5011665;28;20049;-78
2022/03/12 09:12:30;;;;;;;3.50;2.10;;;;;;;;;;4994526;28;20057;-78
2022/03/12 09:14:55;;;;;;;4.13;2.30;;;;;;;;;;5009980;28;20500;-78
2022/03/12 09:17:22;;;;;;;3.13;1.70;;;;;;;;;;5023715;28;20041;-78
2022/03/12 09:19:47;;;;;;;3.15;1.73;;;;;;;;;;5025662;28;20042;-77
2022/03/12 09:22:13;;;;;;;3.20;1.60;;;;;;;;;;5008988;28;20113;-77
2022/03/12 09:24:40;;;;;;;2.97;1.50;;;;;;;;;;4991867;28;20038;-77
2022/03/12 09:27:06;;;;;;;3.47;1.42;;;;;;;;;;4993054;28;20041;-77
2022/03/12 09:29:32;;;;;;;4.50;1.95;;;;;;;;;;4992418;28;20528;-77
2022/03/12 09:31:59;;;;;;;2.45;1.63;;;;;;;;;;5010493;28;20444;-78
2022/03/12 09:34:24;;;;;;;2.15;1.48;;;;;;;;;;4993257;28;20092;-77
2022/03/12 09:36:49;;;;;;;2.67;1.48;;;;;;;;;;5011147;28;20042;-77
2022/03/12 09:39:15;;;;;;;2.85;1.65;;;;;;;;;;4989775;28;20042;-78
2022/03/12 09:41:40;;;;;;;3.72;1.60;;;;;;;;;;5010314;28;20056;-77
2022/03/12 09:44:06;;;;;;;4.93;1.67;;;;;;;;;;4997195;28;20396;-77
2022/03/12 09:46:32;;;;;;;3.47;1.55;;;;;;;;;;4997848;28;20116;-77
2022/03/12 09:48:57;;;;;;;2.22;1.35;;;;;;;;;;4996974;28;20037;-78
2022/03/12 09:51:23;;;;;;;2.55;1.17;;;;;;;;;;5010150;28;20038;-77
2022/03/12 09:53:48;;;;;;;2.63;1.40;;;;;;;;;;4980068;28;20089;-77
2022/03/12 09:56:14;;;;;;;3.63;1.38;;;;;;;;;;5029738;28;20049;-78
2022/03/12 09:58:40;;;;;;;3.67;1.48;;;;;;;;;;5009360;28;20038;-77
2022/03/12 10:01:06;;;;;;;2.80;1.60;;;;;;;;;;4993891;28;20050;-77
2022/03/12 10:03:32;;;;;;;3.15;1.48;;;;;;;;;;5010060;28;20077;-77
2022/03/12 10:05:58;;;;;;;3.20;1.25;;;;;;;;;;4996154;28;20451;-77
2022/03/12 10:08:23;;;;;;;3.53;1.80;;;;;;;;;;5012369;28;20038;-77
2022/03/12 10:10:49;;;;;;;2.53;1.58;;;;;;;;;;4996655;28;20415;-77
2022/03/12 10:13:14;;;;;;;3.42;1.33;;;;;;;;;;4996786;28;20041;-78
2022/03/12 10:15:40;;;;;;;3.00;1.60;;;;;;;;;;5012945;28;20506;-77
2022/03/12 10:18:06;;;;;;;2.58;1.30;;;;;;;;;;4996560;28;20029;-78
2022/03/12 10:20:32;;;;;;;3.45;1.20;;;;;;;;;;4996743;28;20036;-77
2022/03/12 10:22:58;;;;;;;2.38;1.52;;;;;;;;;;4995730;28;20546;-78
2022/03/12 10:25:23;;;;;;;5.05;1.50;;;;;;;;;;5012890;28;20113;-78
2022/03/12 10:27:49;;;;;;;2.10;0.90;;;;;;;;;;5013994;28;20038;-77
2022/03/12 10:30:15;;;;;;;6.10;1.45;;;;;;;;;;4996297;28;20030;-77
2022/03/12 10:32:45;;;;;;;3.28;1.60;;;;;;;;;;4996463;28;20045;-77
2022/03/12 10:35:14;;;;;;;4.35;2.15;;;;;;;;;;4996472;28;20045;-77
2022/03/12 10:37:40;;;;;;;5.43;1.20;;;;;;;;;;4996085;28;20049;-77
2022/03/12 10:40:19;;;;;;;4.38;1.80;;;;;;;;;;4996453;28;20160;-78
2022/03/12 10:42:56;;;;;;;5.80;1.77;;;;;;;;;;5012522;28;20119;-77
2022/03/12 10:45:23;;;;;;;7.30;1.83;;;;;;;;;;4997698;28;20075;-77
2022/03/12 10:47:50;;;;;;;5.57;1.73;;;;;;;;;;5029164;28;20042;-77
2022/03/12 10:50:26;;;;;;;3.72;1.73;;;;;;;;;;4995012;28;20381;-77
2022/03/12 10:52:56;;;;;;;3.75;1.27;;;;;;;;;;5011527;28;20045;-77
2022/03/12 10:55:24;;;;;;;2.60;1.40;;;;;;;;;;5011605;28;20128;-77
2022/03/12 10:58:06;;;;;;;3.70;1.65;;;;;;;;;;5012435;28;20049;-77
2022/03/12 11:00:39;;;;;;;3.85;1.17;;;;;;;;;;5013485;28;20045;-77
2022/03/12 11:03:12;;;;;;;4.32;2.00;;;;;;;;;;5006844;28;20784;-77
2022/03/12 11:05:38;;;;;;;4.10;1.00;;;;;;;;;;4995597;28;20049;-77
2022/03/12 11:08:22;;;;;;;3.03;1.30;;;;;;;;;;4995362;28;20038;-77
2022/03/12 11:10:50;;;;;;;2.40;1.10;;;;;;;;;;5011863;28;20049;-77
2022/03/12 11:13:42;;;;;;;3.08;0.90;;;;;;;;;;5013052;28;20503;-77
2022/03/12 11:16:19;;;;;;;5.20;1.48;;;;;;;;;;4997650;28;20038;-77
2022/03/12 11:18:50;;;;;;;2.80;1.20;;;;;;;;;;5011776;28;20121;-77
2022/03/12 11:21:37;;;;;;;5.05;1.10;;;;;;;;;;5013099;28;20034;-77
2022/03/12 11:24:21;;;;;;;5.72;1.00;;;;;;;;;;5004410;28;20050;-77
2022/03/12 11:26:47;;;;;;;3.75;1.17;;;;;;;;;;4995277;28;20496;-77
2022/03/12 11:29:12;;;;;;;5.45;1.35;;;;;;;;;;5010303;28;20057;-77
2022/03/12 11:31:52;;;;;;;4.88;1.52;;;;;;;;;;5011587;28;20104;-77
2022/03/12 11:34:25;;;;;;;7.82;1.60;;;;;;;;;;5011579;28;20050;-77
2022/03/12 11:36:56;;;;;;;3.05;2.17;;;;;;;;;;4995540;28;20128;-77
2022/03/12 11:39:32;;;;;;;5.28;3.40;;;;;;;;;;5010904;28;20053;-77
2022/03/12 11:42:11;;;;;;;9.38;8.77;;;;;;;;;;5011699;28;20129;-77
2022/03/12 11:44:38;;;;;;;33.28;30.58;;;;;;;;;;5027025;28;20034;-77
2022/03/12 11:47:05;;;;;;;27.10;24.58;;;;;;;;;;4994886;28;20044;-77
2022/03/12 11:49:32;;;;;;;22.48;20.33;;;;;;;;;;4994734;28;20492;-78
2022/03/12 11:51:58;;;;;;;20.02;18.23;;;;;;;;;;4991736;28;20042;-77
2022/03/12 11:54:24;;;;;;;20.13;18.27;;;;;;;;;;4975264;28;20117;-77
2022/03/12 11:56:49;;;;;;;20.05;18.08;;;;;;;;;;4980306;28;20500;-77
2022/03/12 11:59:15;;;;;;;18.58;16.77;;;;;;;;;;4994677;28;20034;-77
2022/03/12 12:01:41;;;;;;;17.10;15.60;;;;;;;;;;5026833;28;20029;-77
2022/03/12 12:04:07;;;;;;;15.77;14.35;;;;;;;;;;4994206;28;20066;-77
2022/03/12 12:06:34;;;;;;;18.13;13.65;;;;;;;;;;5011116;28;20038;-77
2022/03/12 12:09:02;;;;;;;14.25;11.75;;;;;;;;;;4994537;28;20042;-77
2022/03/12 12:11:31;;;;;;;11.98;10.77;;;;;;;;;;5012401;28;20042;-77
2022/03/12 12:13:58;;;;;;;11.43;9.88;;;;;;;;;;5011153;28;20042;-77
2022/03/12 12:16:25;;;;;;;10.00;8.98;;;;;;;;;;5011181;28;20041;-77
2022/03/12 12:18:50;;;;;;;9.00;8.10;;;;;;;;;;5010756;28;20095;-77
2022/03/12 12:21:19;;;;;;;7.75;6.97;;;;;;;;;;4994396;28;20112;-77
2022/03/12 12:23:45;;;;;;;8.50;6.20;;;;;;;;;;4992874;28;20042;-77
2022/03/12 12:26:11;;;;;;;7.43;5.82;;;;;;;;;;5026783;28;20394;-77
2022/03/12 12:28:53;;;;;;;6.57;5.47;;;;;;;;;;4994810;28;20040;-77
2022/03/12 12:31:22;;;;;;;;;;;;;;;;;;5024116;28;20117;-77
2022/03/12 12:33:48;;;;;;;5.00;4.50;;;;;;;;;;5010231;28;19960;-77
2022/03/12 12:36:17;;;;;;;5.82;4.50;;;;;;;;;;4993781;28;20136;-77
2022/03/12 12:39:06;;;;;;;6.70;4.40;;;;;;;;;;5010470;28;20066;-77
2022/03/12 12:42:05;;;;;;;5.85;3.60;;;;;;;;;;5010461;28;20049;-77
2022/03/12 12:44:34;;;;;;;4.43;3.30;;;;;;;;;;4999640;28;20096;-77
2022/03/12 12:47:04;;;;;;;5.30;3.08;;;;;;;;;;5023819;28;20575;-77
2022/03/12 12:49:55;;;;;;;4.70;2.70;;;;;;;;;;5009320;28;20566;-77
2022/03/12 12:52:21;;;;;;;4.45;3.08;;;;;;;;;;5001385;28;20054;-77
2022/03/12 12:54:46;;;;;;;4.10;2.42;;;;;;;;;;5010872;28;20105;-77
2022/03/12 12:57:12;;;;;;;4.70;2.38;;;;;;;;;;5011892;28;20038;-77
2022/03/12 12:59:42;;;;;;;7.35;2.50;;;;;;;;;;5026936;28;20370;-77
2022/03/12 13:02:08;;;;;;;4.55;2.28;;;;;;;;;;5010816;28;20069;-77
2022/03/12 13:04:44;;;;;;;4.10;1.70;;;;;;;;;;5010698;28;20040;-77
2022/03/12 13:07:23;;;;;;;4.97;2.22;;;;;;;;;;4978301;28;20042;-77
2022/03/12 13:09:49;;;;;;;4.28;2.03;;;;;;;;;;4990677;28;20035;-77
2022/03/12 13:12:15;;;;;;;3.92;1.70;;;;;;;;;;5007325;28;20069;-77
2022/03/12 13:14:42;;;;;;;3.15;1.55;;;;;;;;;;4990105;28;20053;-77
2022/03/12 13:17:07;;;;;;;3.00;1.45;;;;;;;;;;4993131;28;20497;-77
2022/03/12 13:19:33;;;;;;;2.90;1.25;;;;;;;;;;4979459;28;20125;-77
2022/03/12 13:22:06;;;;;;;2.60;1.60;;;;;;;;;;4995674;28;20070;-77
2022/03/12 13:24:41;;;;;;;5.60;1.23;;;;;;;;;;4994646;28;20085;-77
2022/03/12 13:27:15;;;;;;;3.30;1.17;;;;;;;;;;4979457;28;20038;-77
2022/03/12 13:29:40;;;;;;;4.60;1.30;;;;;;;;;;4978706;28;20049;-77
2022/03/12 13:32:06;;;;;;;3.47;1.30;;;;;;;;;;4994246;28;20504;-77
2022/03/12 13:34:35;;;;;;;3.13;1.30;;;;;;;;;;4993780;28;20034;-77
2022/03/12 13:37:01;;;;;;;2.40;0.90;;;;;;;;;;4997198;28;20072;-77
2022/03/12 13:39:28;;;;;;;2.90;0.93;;;;;;;;;;4997175;28;20100;-77
2022/03/12 13:41:55;;;;;;;2.22;1.08;;;;;;;;;;5013979;28;20034;-77
2022/03/12 13:44:21;;;;;;;2.42;1.00;;;;;;;;;;5014285;28;20072;-77
2022/03/12 13:46:47;;;;;;;1.83;0.95;;;;;;;;;;5013522;28;20042;-76
2022/03/12 13:49:15;;;;;;;1.98;0.80;;;;;;;;;;4993357;28;20026;-77
2022/03/12 13:51:54;;;;;;;2.72;0.68;;;;;;;;;;5028910;28;20611;-77
2022/03/12 13:54:20;;;;;;;1.92;0.88;;;;;;;;;;5014418;28;20041;-77
2022/03/12 13:56:47;;;;;;;4.55;1.13;;;;;;;;;;5013657;28;20089;-78
2022/03/12 13:59:15;;;;;;;4.50;1.13;;;;;;;;;;5009991;28;20101;-77
2022/03/12 14:01:42;;;;;;;4.28;1.08;;;;;;;;;;4977639;28;20092;-77
2022/03/12 14:04:27;;;;;;;5.93;1.50;;;;;;;;;;4995574;28;20050;-77
2022/03/12 14:06:52;;;;;;;5.43;1.42;;;;;;;;;;4998561;28;20535;-77
2022/03/12 14:09:19;;;;;;;4.82;1.20;;;;;;;;;;5029393;28;20034;-78
2022/03/12 14:11:47;;;;;;;8.68;1.55;;;;;;;;;;5029519;28;20072;-77
2022/03/12 14:14:14;;;;;;;6.13;1.40;;;;;;;;;;5013171;28;20041;-78
2022/03/12 14:16:45;;;;;;;5.72;1.77;;;;;;;;;;5012847;28;20057;-77
2022/03/12 14:19:11;;;;;;;7.05;2.55;;;;;;;;;;5023232;28;20030;-77
2022/03/12 14:21:44;;;;;;;5.13;2.30;;;;;;;;;;5009377;28;20030;-77
2022/03/12 14:24:17;;;;;;;6.68;1.98;;;;;;;;;;5012827;28;20527;-77
2022/03/12 14:26:52;;;;;;;5.75;2.35;;;;;;;;;;4997529;28;20075;-77
2022/03/12 14:29:41;;;;;;;4.78;1.98;;;;;;;;;;5012330;28;20128;-77
2022/03/12 14:32:14;;;;;;;8.63;2.00;;;;;;;;;;5013124;28;20045;-78
2022/03/12 14:34:41;;;;;;;6.25;2.15;;;;;;;;;;4996297;28;20076;-77
2022/03/12 14:37:07;;;;;;;3.63;1.50;;;;;;;;;;4996401;28;20045;-77
2022/03/12 14:39:33;;;;;;;2.30;1.40;;;;;;;;;;5012659;28;20121;-77
2022/03/12 14:41:59;;;;;;;3.08;1.55;;;;;;;;;;4996425;28;20507;-78
2022/03/12 14:44:27;;;;;;;3.95;1.38;;;;;;;;;;4996708;28;20057;-78
2022/03/12 14:46:53;;;;;;;2.55;1.33;;;;;;;;;;4992253;28;20039;-77
2022/03/12 14:49:25;;;;;;;4.65;1.30;;;;;;;;;;4997664;28;20038;-77